Time;durP1;ratioP1;P1;durP2;ratioP2;P2;SDS_P1;SDS_P2;PMS_P1;PMS_P2;Temp;Humidity;BMP_temperature;BMP_pressure;BME280_temperature;BME280_humidity;BME280_pressure;Samples;Min_cycle;Max_cycle;Signal;HPM_P1;HPM_P2
2022/05/01 00:01:47;;;;;;;13.40;8.65;;;10.20;99.90;;;;;;5019683;28;20288;-49
2022/05/01 00:04:14;;;;;;;13.23;8.00;;;10.10;99.90;;;;;;5020102;28;20244;-48
2022/05/01 00:06:42;;;;;;;8.55;7.10;;;10.20;99.90;;;;;;5019877;28;20565;-48
2022/05/01 00:09:09;;;;;;;12.30;7.45;;;10.10;99.90;;;;;;5020240;28;20299;-44
2022/05/01 00:11:37;;;;;;;11.48;8.05;;;10.20;99.90;;;;;;5019735;28;20204;-47
2022/05/01 00:14:04;;;;;;;10.70;7.93;;;10.10;99.90;;;;;;5020107;28;20469;-48
2022/05/01 00:16:31;;;;;;;12.60;7.90;;;10.00;99.90;;;;;;5019903;28;20383;-48
2022/05/01 00:18:59;;;;;;;8.48;6.68;;;10.10;99.90;;;;;;5023826;28;20234;-47
2022/05/01 00:21:27;;;;;;;13.32;7.75;;;10.10;99.90;;;;;;5024074;28;20274;-48
2022/05/01 00:23:54;;;;;;;9.73;6.43;;;10.00;99.90;;;;;;5023820;28;20578;-49
2022/05/01 00:26:22;;;;;;;15.38;8.23;;;9.90;99.90;;;;;;5024140;28;20352;-46
2022/05/01 00:28:49;;;;;;;11.52;6.68;;;9.90;99.90;;;;;;5023274;28;20230;-49
2022/05/01 00:31:18;;;;;;;10.35;7.20;;;10.00;99.90;;;;;;5023705;28;20278;-49
2022/05/01 00:36:31;;;;;;;9.80;7.07;;;10.00;99.90;;;;;;5024006;28;20204;-50
2022/05/01 00:39:03;;;;;;;8.32;6.50;;;9.80;99.90;;;;;;5023101;28;20543;-49
2022/05/01 00:41:34;;;;;;;10.95;7.65;;;9.90;99.90;;;;;;5023660;28;20234;-48
2022/05/01 00:44:08;;;;;;;7.63;6.82;;;9.90;99.90;;;;;;5022590;28;20410;-47
2022/05/01 00:46:46;;;;;;;15.10;8.73;;;9.80;99.90;;;;;;5023592;28;20207;-48
2022/05/01 00:49:23;;;;;;;12.95;8.50;;;9.80;99.90;;;;;;5023501;28;20254;-50
2022/05/01 00:52:05;;;;;;;12.10;8.02;;;9.80;99.90;;;;;;5023359;28;20218;-47
2022/05/01 00:54:34;;;;;;;10.15;7.35;;;9.80;99.90;;;;;;5023440;28;20208;-47
2022/05/01 00:57:06;;;;;;;9.50;6.82;;;9.60;99.90;;;;;;5023548;28;20208;-47
2022/05/01 00:59:35;;;;;;;12.85;7.70;;;9.50;99.90;;;;;;5023384;28;20226;-49
2022/05/01 01:02:04;;;;;;;7.75;6.93;;;9.60;99.90;;;;;;5023245;28;20536;-46
2022/05/01 01:04:32;;;;;;;11.15;7.38;;;9.60;99.90;;;;;;5023256;28;20241;-49
2022/05/01 01:07:00;;;;;;;11.15;8.57;;;9.70;99.90;;;;;;5023181;28;20198;-44
2022/05/01 01:09:27;;;;;;;11.07;7.20;;;9.60;99.90;;;;;;5020079;28;20234;-45
2022/05/01 01:14:42;;;;;;;9.80;6.18;;;9.60;99.90;;;;;;5003339;28;20274;-47
2022/05/01 01:17:11;;;;;;;11.45;8.23;;;9.60;99.90;;;;;;5003312;28;20208;-46
2022/05/01 01:19:38;;;;;;;17.13;8.82;;;9.60;99.90;;;;;;5003105;28;20541;-50
2022/05/01 01:22:08;;;;;;;11.90;8.18;;;9.60;99.90;;;;;;5003311;28;20199;-47
2022/05/01 01:24:39;;;;;;;13.02;8.32;;;9.40;99.90;;;;;;5003088;28;20270;-48
2022/05/01 01:27:08;;;;;;;11.80;7.35;;;9.40;99.90;;;;;;5004573;28;20274;-48
2022/05/01 01:32:26;;;;;;;10.18;7.53;;;9.50;99.90;;;;;;5022047;28;20485;-48
2022/05/01 01:34:55;;;;;;;11.45;8.15;;;9.40;99.90;;;;;;5022734;28;20211;-46
2022/05/01 01:37:24;;;;;;;12.57;7.78;;;9.40;99.90;;;;;;5023080;28;20202;-48
2022/05/01 01:39:53;;;;;;;9.77;7.10;;;9.30;99.90;;;;;;5021809;28;20235;-47
2022/05/01 01:42:21;;;;;;;10.90;8.13;;;9.30;99.90;;;;;;5022129;28;20206;-50
2022/05/01 01:44:50;;;;;;;15.30;7.60;;;9.20;99.90;;;;;;5022032;28;20218;-48
2022/05/01 01:47:18;;;;;;;9.65;7.68;;;9.20;99.90;;;;;;5022808;28;20205;-48
2022/05/01 01:49:45;;;;;;;10.48;7.78;;;9.30;99.90;;;;;;5022176;28;20551;-46
2022/05/01 01:52:13;;;;;;;11.75;8.57;;;9.40;99.90;;;;;;5022719;28;20210;-44
2022/05/01 01:54:40;;;;;;;15.77;8.40;;;9.30;99.90;;;;;;5021874;28;20290;-44
2022/05/01 01:57:07;;;;;;;12.80;7.85;;;9.30;99.90;;;;;;5022393;28;20210;-50
2022/05/01 01:59:35;;;;;;;13.00;7.93;;;9.30;99.90;;;;;;5022306;28;20494;-49
2022/05/01 02:02:03;;;;;;;16.40;9.18;;;9.30;99.90;;;;;;5022471;28;20233;-49
2022/05/01 02:04:30;;;;;;;13.32;10.45;;;9.20;99.90;;;;;;5022197;28;20207;-45
2022/05/01 02:06:57;;;;;;;18.42;9.43;;;9.10;99.90;;;;;;5022009;28;20198;-45
2022/05/01 02:09:25;;;;;;;11.60;9.85;;;9.30;99.90;;;;;;5022134;28;20257;-47
2022/05/01 02:11:53;;;;;;;12.05;7.72;;;9.20;99.90;;;;;;5021560;28;20276;-48
2022/05/01 02:14:20;;;;;;;11.75;8.40;;;9.10;99.90;;;;;;5022313;28;20277;-51
2022/05/01 02:16:48;;;;;;;10.02;8.25;;;9.00;99.90;;;;;;5021627;28;20551;-47
2022/05/01 02:19:16;;;;;;;10.40;7.25;;;9.00;99.90;;;;;;5022281;28;20231;-46
2022/05/01 02:21:44;;;;;;;12.77;8.57;;;8.90;99.90;;;;;;5021778;28;20204;-47
2022/05/01 02:24:14;;;;;;;15.32;9.35;;;8.90;99.90;;;;;;5021889;28;20392;-51
2022/05/01 02:26:42;;;;;;;13.20;7.68;;;8.80;99.90;;;;;;5021731;28;20206;-49
2022/05/01 02:29:10;;;;;;;12.13;8.10;;;8.80;99.90;;;;;;5021668;28;20222;-45
2022/05/01 02:31:42;;;;;;;11.68;7.88;;;8.70;99.90;;;;;;5022108;28;20387;-46
2022/05/01 02:34:11;;;;;;;10.93;7.30;;;8.70;99.90;;;;;;5022256;28;20268;-44
2022/05/01 02:36:39;;;;;;;12.60;7.80;;;8.70;99.90;;;;;;5022171;28;20234;-45
2022/05/01 02:39:06;;;;;;;14.57;7.90;;;8.70;99.90;;;;;;5021930;28;20292;-44
2022/05/01 02:41:34;;;;;;;10.98;7.68;;;8.80;99.90;;;;;;5022054;28;20213;-45
2022/05/01 02:44:01;;;;;;;13.15;7.32;;;8.70;99.90;;;;;;5022122;28;20232;-50
2022/05/01 02:46:29;;;;;;;12.75;8.43;;;8.60;99.90;;;;;;5022037;28;20205;-48
2022/05/01 02:48:56;;;;;;;10.75;8.43;;;8.50;99.90;;;;;;5021636;28;20436;-44
2022/05/01 02:51:24;;;;;;;16.90;8.07;;;8.50;99.90;;;;;;5021873;28;20208;-48
2022/05/01 02:53:51;;;;;;;10.65;6.75;;;8.60;99.90;;;;;;5021140;28;20207;-45
2022/05/01 02:56:18;;;;;;;17.20;7.97;;;8.60;99.90;;;;;;5021339;28;20206;-47
2022/05/01 02:58:46;;;;;;;11.00;8.50;;;8.50;99.90;;;;;;5021077;28;20248;-44
2022/05/01 03:01:13;;;;;;;15.50;9.05;;;8.50;99.90;;;;;;5020891;28;20272;-46
2022/05/01 03:03:40;;;;;;;11.68;7.28;;;8.50;99.90;;;;;;5021070;28;20202;-46
2022/05/01 03:06:08;;;;;;;10.15;7.68;;;8.50;99.90;;;;;;5021145;28;20197;-45
2022/05/01 03:08:34;;;;;;;9.93;6.95;;;8.50;99.90;;;;;;5021305;28;20591;-45
2022/05/01 03:11:02;;;;;;;9.43;6.75;;;8.50;99.90;;;;;;5021034;28;20201;-46
2022/05/01 03:13:29;;;;;;;17.15;8.90;;;8.60;99.90;;;;;;5020905;28;20287;-49
2022/05/01 03:15:56;;;;;;;9.73;7.20;;;8.50;99.90;;;;;;5020622;28;20481;-47
2022/05/01 03:23:55;;;;;;;11.13;7.43;;;8.10;99.90;;;;;;5020780;28;20463;-44
2022/05/01 03:26:25;;;;;;;15.90;6.95;;;8.20;99.90;;;;;;5020554;28;20229;-42
2022/05/01 03:28:52;;;;;;;10.18;8.05;;;8.40;99.90;;;;;;5020912;28;20421;-45
2022/05/01 03:31:20;;;;;;;10.40;7.38;;;8.20;99.90;;;;;;5021279;28;20228;-46
2022/05/01 03:33:48;;;;;;;11.50;7.75;;;8.20;99.90;;;;;;5020468;28;20453;-45
2022/05/01 03:36:15;;;;;;;16.98;7.40;;;8.20;99.90;;;;;;5020910;28;20388;-49
2022/05/01 03:38:42;;;;;;;10.30;7.25;;;8.20;99.90;;;;;;5020227;28;20300;-45
2022/05/01 03:41:14;;;;;;;12.23;8.30;;;8.20;99.90;;;;;;5021164;28;20197;-45
2022/05/01 03:43:42;;;;;;;13.13;8.55;;;8.30;99.90;;;;;;5020329;28;20198;-45
2022/05/01 03:46:10;;;;;;;11.07;7.75;;;8.20;99.90;;;;;;5020682;28;20211;-47
2022/05/01 03:48:38;;;;;;;9.65;6.90;;;8.20;99.90;;;;;;5020279;28;20255;-51
2022/05/01 03:51:05;;;;;;;11.93;7.60;;;8.30;99.90;;;;;;5020438;28;20272;-48
2022/05/01 03:53:32;;;;;;;9.93;6.90;;;8.40;99.90;;;;;;5020703;28;20208;-45
2022/05/01 03:55:59;;;;;;;12.13;7.25;;;8.50;99.90;;;;;;5020740;28;20201;-45
2022/05/01 03:58:29;;;;;;;10.55;7.05;;;8.50;99.90;;;;;;5019952;28;20231;-53
2022/05/01 04:00:59;;;;;;;11.80;8.02;;;8.50;99.90;;;;;;5020572;28;20198;-50
2022/05/01 04:03:26;;;;;;;13.00;8.90;;;8.30;99.90;;;;;;5020759;28;20284;-50
2022/05/01 04:05:54;;;;;;;14.60;7.90;;;8.20;99.90;;;;;;5020579;28;20198;-45
2022/05/01 04:08:21;;;;;;;10.20;7.55;;;8.20;99.90;;;;;;5021028;28;20361;-47
2022/05/01 04:10:49;;;;;;;14.63;7.13;;;8.50;99.90;;;;;;5019824;28;20198;-45
2022/05/01 04:13:17;;;;;;;10.07;8.23;;;8.40;99.90;;;;;;5020187;28;20196;-47
2022/05/01 04:15:45;;;;;;;10.60;7.70;;;8.50;99.90;;;;;;5020196;28;20272;-46
2022/05/01 04:18:12;;;;;;;11.05;7.50;;;8.60;99.90;;;;;;5020450;28;20285;-51
2022/05/01 04:20:39;;;;;;;14.02;8.35;;;8.80;99.90;;;;;;5019749;28;20335;-44
2022/05/01 04:23:08;;;;;;;10.45;7.55;;;9.00;99.90;;;;;;5020156;28;20268;-49
2022/05/01 04:25:36;;;;;;;13.65;8.00;;;8.70;99.90;;;;;;5019996;28;20263;-47
2022/05/01 04:28:06;;;;;;;10.60;7.57;;;8.80;99.90;;;;;;5021109;28;20219;-47
2022/05/01 04:30:33;;;;;;;13.82;8.65;;;9.00;99.90;;;;;;5020820;28;20405;-56
2022/05/01 04:33:06;;;;;;;13.70;7.50;;;9.10;99.90;;;;;;5020309;28;20238;-47
2022/05/01 04:35:52;;;;;;;12.00;8.57;;;9.20;99.90;;;;;;5022272;28;20210;-49
2022/05/01 04:38:23;;;;;;;13.18;8.27;;;9.30;99.90;;;;;;5020984;28;20304;-45
2022/05/01 04:40:53;;;;;;;11.25;7.13;;;9.40;99.90;;;;;;5019960;28;20269;-49
2022/05/01 04:43:23;;;;;;;9.02;7.00;;;9.40;99.90;;;;;;5019657;28;20195;-46
2022/05/01 04:45:52;;;;;;;10.95;7.68;;;9.40;99.90;;;;;;5020226;28;20448;-46
2022/05/01 04:48:21;;;;;;;10.38;7.03;;;9.70;99.90;;;;;;5020127;28;20290;-44
2022/05/01 04:50:50;;;;;;;7.38;6.18;;;9.80;99.90;;;;;;5019912;28;20209;-49
2022/05/01 04:53:20;;;;;;;13.35;6.88;;;10.10;99.90;;;;;;5020194;28;20227;-46
2022/05/01 04:55:48;;;;;;;11.68;7.43;;;10.40;99.90;;;;;;5019556;28;20278;-46
2022/05/01 04:58:16;;;;;;;9.68;7.72;;;10.50;99.90;;;;;;5019497;28;20223;-47
2022/05/01 05:00:45;;;;;;;12.15;7.70;;;10.50;99.90;;;;;;5019720;28;20496;-46
2022/05/01 05:03:12;;;;;;;9.07;7.93;;;10.60;99.90;;;;;;5020670;28;20303;-44
2022/05/01 05:05:40;;;;;;;12.95;8.57;;;10.80;99.90;;;;;;5023049;28;20262;-47
2022/05/01 05:10:53;;;;;;;14.77;7.68;;;10.90;99.90;;;;;;5022923;28;20204;-47
2022/05/01 05:13:24;;;;;;;11.63;8.07;;;11.10;99.90;;;;;;5023245;28;20204;-46
2022/05/01 05:15:53;;;;;;;11.07;5.85;;;11.20;99.90;;;;;;5022699;28;20201;-47
2022/05/01 05:18:21;;;;;;;11.68;6.97;;;11.30;99.90;;;;;;5023325;28;20247;-47
2022/05/01 05:20:48;;;;;;;9.55;7.32;;;11.40;99.90;;;;;;5022175;28;20287;-46
2022/05/01 05:23:17;;;;;;;10.43;7.00;;;11.50;99.90;;;;;;5023216;28;20197;-47
2022/05/01 05:25:44;;;;;;;13.25;7.35;;;11.50;99.90;;;;;;5022452;28;20461;-50
2022/05/01 05:28:12;;;;;;;12.30;7.68;;;11.50;99.90;;;;;;5022979;28;20219;-46
2022/05/01 05:30:40;;;;;;;8.80;7.93;;;11.50;99.90;;;;;;5022330;28;20272;-48
2022/05/01 05:33:07;;;;;;;9.35;7.00;;;11.70;99.90;;;;;;5021476;28;20287;-47
2022/05/01 05:35:36;;;;;;;8.05;6.72;;;11.80;99.90;;;;;;5022878;28;20201;-44
2022/05/01 05:38:03;;;;;;;9.43;6.80;;;11.80;99.90;;;;;;5022328;28;20237;-47
2022/05/01 05:40:31;;;;;;;10.27;8.30;;;11.90;99.90;;;;;;5019483;28;20292;-51
2022/05/01 05:42:58;;;;;;;12.65;6.78;;;12.00;99.90;;;;;;5015602;28;20222;-48
2022/05/01 05:45:25;;;;;;;5.90;5.30;;;12.00;99.90;;;;;;5017167;28;20218;-49
2022/05/01 05:47:52;;;;;;;10.20;7.68;;;12.20;99.90;;;;;;5013953;28;20276;-51
2022/05/01 05:50:20;;;;;;;9.63;6.35;;;12.30;99.90;;;;;;5016702;28;20210;-46
2022/05/01 05:52:47;;;;;;;6.28;5.47;;;12.50;99.90;;;;;;5013753;28;20268;-48
2022/05/01 05:55:14;;;;;;;7.07;6.35;;;12.60;99.90;;;;;;5016586;28;20271;-45
2022/05/01 05:57:42;;;;;;;15.65;6.20;;;12.70;99.90;;;;;;5014382;28;20223;-45
2022/05/01 06:00:09;;;;;;;7.43;6.60;;;12.90;99.90;;;;;;5016059;28;20224;-49
2022/05/01 06:02:37;;;;;;;9.75;6.78;;;13.10;99.90;;;;;;5015082;28;20494;-43
2022/05/01 06:05:04;;;;;;;8.45;6.95;;;13.10;99.90;;;;;;5014192;28;20559;-46
2022/05/01 06:07:32;;;;;;;11.05;6.70;;;13.30;99.90;;;;;;5022169;28;20500;-48
2022/05/01 06:09:59;;;;;;;7.68;6.10;;;13.40;99.90;;;;;;5020645;28;20227;-46
2022/05/01 06:12:28;;;;;;;8.00;6.70;;;13.50;99.90;;;;;;5021813;28;20197;-46
2022/05/01 06:14:55;;;;;;;7.85;6.97;;;13.80;99.90;;;;;;5030502;28;20447;-48
2022/05/01 06:17:23;;;;;;;9.38;6.85;;;14.10;99.90;;;;;;5042214;28;20208;-47
2022/05/01 06:19:50;;;;;;;7.75;6.28;;;14.30;99.90;;;;;;5026818;28;20239;-46
2022/05/01 06:22:17;;;;;;;11.52;7.35;;;14.20;99.90;;;;;;5022384;28;20205;-48
2022/05/01 06:24:44;;;;;;;8.50;7.00;;;14.40;99.90;;;;;;5021685;28;20459;-47
2022/05/01 06:27:11;;;;;;;8.87;7.50;;;14.90;99.90;;;;;;5027076;28;20261;-52
2022/05/01 06:29:39;;;;;;;10.50;6.67;;;15.30;99.90;;;;;;5040935;28;20455;-47
2022/05/01 06:32:10;;;;;;;10.93;8.50;;;15.70;99.90;;;;;;5041327;28;20511;-50
2022/05/01 06:34:38;;;;;;;8.33;7.03;;;16.00;99.90;;;;;;5041429;28;20472;-52
2022/05/01 06:37:05;;;;;;;12.70;8.77;;;16.00;99.90;;;;;;5041279;28;20446;-49
2022/05/01 06:39:33;;;;;;;9.33;7.40;;;15.90;99.90;;;;;;5041118;28;20497;-49
2022/05/01 06:42:01;;;;;;;9.47;8.23;;;16.60;99.90;;;;;;5021657;28;20748;-47
2022/05/01 06:44:28;;;;;;;12.77;8.43;;;17.50;99.90;;;;;;5024323;28;20481;-50
2022/05/01 06:46:56;;;;;;;8.83;7.93;;;18.40;97.80;;;;;;5020974;28;20492;-48
2022/05/01 06:49:23;;;;;;;9.93;8.17;;;18.70;96.50;;;;;;5021063;28;20440;-48
2022/05/01 06:51:50;;;;;;;9.13;8.23;;;18.30;96.30;;;;;;5020915;28;20530;-51
2022/05/01 06:54:18;;;;;;;10.03;9.03;;;18.60;95.70;;;;;;5021551;28;20406;-47
2022/05/01 06:56:45;;;;;;;13.80;9.57;;;19.10;95.20;;;;;;5021057;28;20408;-45
2022/05/01 06:59:12;;;;;;;11.60;8.93;;;19.60;93.70;;;;;;5020790;28;20468;-49
2022/05/01 07:01:39;;;;;;;15.60;9.50;;;19.50;93.70;;;;;;5021049;28;20495;-50
2022/05/01 07:04:07;;;;;;;8.73;7.93;;;19.20;93.70;;;;;;5017181;28;20414;-47
2022/05/01 07:06:34;;;;;;;10.33;8.97;;;18.80;94.30;;;;;;5015997;28;20424;-52
2022/05/01 07:09:02;;;;;;;12.70;9.03;;;18.90;94.10;;;;;;5000917;28;20794;-52
2022/05/01 07:11:29;;;;;;;9.40;8.20;;;18.90;94.70;;;;;;5000136;28;20698;-46
2022/05/01 07:13:57;;;;;;;14.53;9.00;;;18.60;94.20;;;;;;5002052;28;20682;-46
2022/05/01 07:16:24;;;;;;;8.73;7.87;;;18.70;94.20;;;;;;5013968;28;20444;-50
2022/05/01 07:18:51;;;;;;;13.33;9.17;;;18.20;94.80;;;;;;5029650;28;20431;-48
2022/05/01 07:21:19;;;;;;;13.00;8.67;;;17.90;95.30;;;;;;5040364;28;20444;-52
2022/05/01 07:23:46;;;;;;;9.70;8.70;;;18.20;95.20;;;;;;5029815;28;20764;-47
2022/05/01 07:26:13;;;;;;;13.13;9.90;;;18.60;95.00;;;;;;5019892;28;20748;-52
2022/05/01 07:28:40;;;;;;;12.33;8.50;;;19.80;93.70;;;;;;5020282;28;20429;-47
2022/05/01 07:31:07;;;;;;;10.03;9.00;;;20.90;92.00;;;;;;5014572;28;20527;-47
2022/05/01 07:33:35;;;;;;;14.07;9.40;;;22.10;89.50;;;;;;5015267;28;20438;-50
2022/05/01 07:36:02;;;;;;;10.63;8.50;;;23.10;87.90;;;;;;5001068;28;20444;-52
2022/05/01 07:38:29;;;;;;;13.97;9.53;;;24.20;81.30;;;;;;5000223;28;20767;-54
2022/05/01 07:40:57;;;;;;;9.90;7.70;;;24.00;80.20;;;;;;5011531;28;20611;-49
2022/05/01 07:43:25;;;;;;;12.60;8.73;;;25.10;75.80;;;;;;5020114;28;20432;-51
2022/05/01 07:45:52;;;;;;;9.63;8.67;;;25.50;72.90;;;;;;5020107;28;20498;-49
2022/05/01 07:48:20;;;;;;;13.70;8.97;;;25.70;71.00;;;;;;5019948;28;20450;-50
2022/05/01 07:50:50;;;;;;;12.00;8.20;;;24.50;71.90;;;;;;5019531;28;20636;-46
2022/05/01 07:53:17;;;;;;;14.83;10.90;;;24.60;71.80;;;;;;5020181;28;20628;-45
2022/05/01 07:55:44;;;;;;;9.40;8.00;;;25.40;71.20;;;;;;5019903;28;20446;-49
2022/05/01 07:58:13;;;;;;;12.27;7.90;;;25.50;69.50;;;;;;5020052;28;20573;-48
2022/05/01 08:00:40;;;;;;;10.77;8.50;;;24.90;70.20;;;;;;5019803;28;20545;-51
2022/05/01 08:05:52;;;;;;;12.07;8.20;;;24.60;70.50;;;;;;5008529;28;20730;-46
2022/05/01 08:08:19;;;;;;;12.20;8.87;;;24.80;69.60;;;;;;5019846;28;20517;-49
2022/05/01 08:10:46;;;;;;;10.33;8.77;;;24.20;71.70;;;;;;5018414;28;20434;-52
2022/05/01 08:13:13;;;;;;;10.87;7.97;;;23.40;73.10;;;;;;5012783;28;20438;-51
2022/05/01 08:15:40;;;;;;;9.33;7.77;;;23.90;71.10;;;;;;5011486;28;20410;-46
2022/05/01 08:21:10;;;;;;;12.30;8.07;;;24.90;69.40;;;;;;5008253;28;20478;-50
2022/05/01 08:23:41;;;;;;;11.13;8.10;;;24.20;69.40;;;;;;5019666;28;20454;-48
2022/05/01 08:26:10;;;;;;;10.07;8.43;;;23.40;70.70;;;;;;5020016;28;20434;-49
2022/05/01 08:28:40;;;;;;;11.70;7.20;;;24.10;70.60;;;;;;5019347;28;20451;-48
2022/05/01 08:31:08;;;;;;;8.80;7.90;;;25.80;67.00;;;;;;5020104;28;20435;-51
2022/05/01 08:33:36;;;;;;;11.20;8.07;;;27.90;62.70;;;;;;5019674;28;20484;-52
2022/05/01 08:36:06;;;;;;;8.30;7.60;;;28.50;59.20;;;;;;5020345;28;20438;-48
2022/05/01 08:38:37;;;;;;;8.20;7.40;;;28.70;58.10;;;;;;5021451;28;20498;-52
2022/05/01 08:41:05;;;;;;;11.17;7.93;;;27.30;59.30;;;;;;5023613;28;20924;-49
2022/05/01 08:43:33;;;;;;;11.63;8.50;;;26.70;60.10;;;;;;5023677;28;20505;-51
2022/05/01 08:46:50;;;;;;;8.93;7.73;;;28.30;58.30;;;;;;5023078;28;20500;-51
2022/05/01 08:49:19;;;;;;;12.27;9.00;;;27.30;58.70;;;;;;5020509;28;20494;-47
2022/05/01 08:51:48;;;;;;;15.60;9.50;;;27.20;58.70;;;;;;5023022;28;20455;-49
2022/05/01 08:54:16;;;;;;;11.63;8.93;;;28.00;58.20;;;;;;5015531;28;20438;-45
2022/05/01 08:56:45;;;;;;;9.60;7.87;;;28.80;56.90;;;;;;5024210;28;20809;-48
2022/05/01 08:59:15;;;;;;;12.93;8.90;;;25.60;59.60;;;;;;5024982;28;20482;-50
2022/05/01 09:01:44;;;;;;;10.37;9.13;;;26.00;60.40;;;;;;5023569;28;20486;-46
2022/05/01 09:04:15;;;;;;;7.90;7.10;;;25.90;60.50;;;;;;5022901;28;20442;-51
2022/05/01 09:06:44;;;;;;;9.87;7.30;;;25.50;61.60;;;;;;5023171;28;20750;-49
2022/05/01 09:09:17;;;;;;;7.60;6.60;;;25.80;59.80;;;;;;5018646;28;20478;-50
2022/05/01 09:14:35;;;;;;;13.53;8.00;;;26.80;57.70;;;;;;5012948;28;20426;-47
2022/05/01 09:17:16;;;;;;;7.40;5.87;;;26.40;58.50;;;;;;5023349;28;20461;-46
2022/05/01 09:19:48;;;;;;;6.00;5.37;;;25.10;59.00;;;;;;5025282;28;20461;-47
2022/05/01 09:22:21;;;;;;;10.60;6.47;;;23.30;61.30;;;;;;5014504;28;20451;-44
2022/05/01 09:24:53;;;;;;;6.83;6.23;;;23.20;63.50;;;;;;5022969;28;20498;-46
2022/05/01 09:27:32;;;;;;;5.90;5.30;;;22.60;65.00;;;;;;5023105;28;20457;-48
2022/05/01 09:30:11;;;;;;;5.00;4.60;;;22.40;65.40;;;;;;5021570;28;20454;-47
2022/05/01 09:32:40;;;;;;;9.73;6.57;;;21.70;65.30;;;;;;5022255;28;20434;-49
2022/05/01 09:35:26;;;;;;;6.90;5.77;;;21.10;66.50;;;;;;5022856;28;20458;-48
2022/05/01 09:38:13;;;;;;;8.83;4.50;;;20.60;65.40;;;;;;5020316;28;20456;-54
2022/05/01 09:40:43;;;;;;;5.97;5.10;;;20.40;69.80;;;;;;5018439;28;20511;-52
2022/05/01 09:43:41;;;;;;;7.33;5.20;;;20.70;69.30;;;;;;5020423;28;20448;-45
2022/05/01 09:46:20;;;;;;;9.30;5.93;;;21.00;69.50;;;;;;5021177;28;20525;-49
2022/05/01 09:49:00;;;;;;;8.70;5.23;;;21.00;66.90;;;;;;5015168;28;20461;-46
2022/05/01 09:51:30;;;;;;;5.33;4.70;;;21.10;68.50;;;;;;5003383;28;20430;-47
2022/05/01 09:53:58;;;;;;;6.10;4.50;;;21.00;68.20;;;;;;5002754;28;20466;-47
2022/05/01 09:56:26;;;;;;;7.80;4.77;;;20.80;67.80;;;;;;5002511;28;20461;-48
2022/05/01 09:59:00;;;;;;;7.00;5.33;;;20.70;68.90;;;;;;5007503;28;20503;-48
2022/05/01 10:01:29;;;;;;;6.60;5.70;;;20.40;70.20;;;;;;5010186;28;20594;-49
2022/05/01 10:04:00;;;;;;;6.90;5.87;;;20.50;69.10;;;;;;5002289;28;20824;-47
2022/05/01 10:06:30;;;;;;;8.93;4.90;;;20.70;70.00;;;;;;5002999;28;20433;-48
2022/05/01 10:08:57;;;;;;;6.17;4.83;;;20.90;66.60;;;;;;5003024;28;20536;-47
2022/05/01 10:11:26;;;;;;;6.30;5.70;;;21.00;67.90;;;;;;5002465;28;20408;-48
2022/05/01 10:13:53;;;;;;;8.83;5.67;;;21.10;67.60;;;;;;5014157;28;20492;-48
2022/05/01 10:16:20;;;;;;;5.50;4.57;;;20.90;66.60;;;;;;5021354;28;20436;-52
2022/05/01 10:18:54;;;;;;;5.60;5.10;;;20.70;68.40;;;;;;5021229;28;20736;-50
2022/05/01 10:21:48;;;;;;;6.40;5.60;;;20.70;67.70;;;;;;5016705;28;20805;-50
2022/05/01 10:24:17;;;;;;;8.27;5.10;;;21.20;67.90;;;;;;5017993;28;20458;-45
2022/05/01 10:27:23;;;;;;;5.37;4.40;;;21.30;62.50;;;;;;5016990;28;20450;-46
2022/05/01 10:32:58;;;;;;;5.10;4.60;;;20.90;64.80;;;;;;5017596;28;20496;-49
2022/05/01 10:35:46;;;;;;;5.90;4.80;;;21.00;65.00;;;;;;5021274;28;20411;-49
2022/05/01 10:38:44;;;;;;;5.83;5.33;;;21.20;64.70;;;;;;5021460;28;20446;-50
2022/05/01 10:41:11;;;;;;;5.07;4.57;;;21.30;65.10;;;;;;5021354;28;20644;-50
2022/05/01 10:43:58;;;;;;;6.07;5.53;;;21.40;64.50;;;;;;5021248;28;20441;-52
2022/05/01 10:46:26;;;;;;;9.30;5.87;;;21.60;66.50;;;;;;5020984;28;20415;-49
2022/05/01 10:48:55;;;;;;;6.13;5.53;;;21.80;65.40;;;;;;5021015;28;20812;-50
2022/05/01 10:51:31;;;;;;;7.30;4.90;;;20.90;65.60;;;;;;5021148;28;20447;-51
2022/05/01 10:54:10;;;;;;;5.83;5.13;;;20.60;67.20;;;;;;5021211;28;20421;-50
2022/05/01 10:56:45;;;;;;;6.63;6.00;;;20.30;68.10;;;;;;5021086;28;20514;-49
2022/05/01 10:59:34;;;;;;;7.37;5.43;;;20.20;68.00;;;;;;5020060;28;20464;-47
2022/05/01 11:02:28;;;;;;;7.53;5.77;;;20.30;68.50;;;;;;5020439;28;20476;-48
2022/05/01 11:04:57;;;;;;;5.43;4.90;;;20.50;67.80;;;;;;5020619;28;20460;-50
2022/05/01 11:07:25;;;;;;;5.53;4.33;;;20.90;68.00;;;;;;5020679;28;20448;-51
2022/05/01 11:09:55;;;;;;;10.13;5.50;;;21.50;69.10;;;;;;5020143;28;20458;-50
2022/05/01 11:12:24;;;;;;;8.40;5.23;;;22.00;68.10;;;;;;5020925;28;20480;-47
2022/05/01 11:15:06;;;;;;;6.30;5.27;;;22.50;66.00;;;;;;5020269;28;20827;-45
2022/05/01 11:17:36;;;;;;;5.80;4.63;;;23.00;64.10;;;;;;5018637;28;20458;-48
2022/05/01 11:20:08;;;;;;;8.07;5.70;;;23.30;64.50;;;;;;5013527;28;20487;-47
2022/05/01 11:22:36;;;;;;;6.73;5.53;;;23.50;61.90;;;;;;5019377;28;20491;-52
2022/05/01 11:25:12;;;;;;;5.70;5.07;;;22.70;63.30;;;;;;5020280;28;20502;-55
2022/05/01 11:27:51;;;;;;;6.90;5.20;;;22.00;64.60;;;;;;5020302;28;20500;-50
2022/05/01 11:30:27;;;;;;;9.13;8.53;;;21.60;65.40;;;;;;5018657;28;20427;-49
2022/05/01 11:33:09;;;;;;;8.47;6.00;;;21.80;64.90;;;;;;5017833;28;20422;-50
2022/05/01 11:35:57;;;;;;;8.57;7.47;;;22.10;63.90;;;;;;5019012;28;20422;-50
2022/05/01 11:38:33;;;;;;;6.30;5.70;;;22.30;64.00;;;;;;5016823;23;20871;-52
2022/05/01 11:41:02;;;;;;;7.20;6.70;;;22.10;64.00;;;;;;5019851;28;20472;-55
2022/05/01 11:43:30;;;;;;;6.37;4.70;;;22.10;64.00;;;;;;5008672;28;20445;-53
2022/05/01 11:46:02;;;;;;;7.07;5.27;;;21.60;65.40;;;;;;5020236;28;20688;-51
2022/05/01 11:48:31;;;;;;;6.20;5.60;;;21.30;65.40;;;;;;5020784;28;20485;-54
2022/05/01 11:50:59;;;;;;;6.00;4.80;;;21.50;65.10;;;;;;5020473;28;20413;-53
2022/05/01 11:53:32;;;;;;;5.63;5.10;;;21.90;64.60;;;;;;5020826;28;20405;-51
2022/05/01 12:04:38;;;;;;;5.27;4.50;;;23.40;63.30;;;;;;5020255;28;20513;-54
2022/05/01 12:07:11;;;;;;;5.43;4.80;;;23.50;64.10;;;;;;5021385;28;20440;-56
2022/05/01 12:09:40;;;;;;;4.80;4.30;;;23.40;61.80;;;;;;5005804;28;20515;-53
2022/05/01 12:12:10;;;;;;;6.40;5.13;;;23.70;62.90;;;;;;5011578;28;20444;-51
2022/05/01 12:14:38;;;;;;;6.90;5.80;;;24.10;63.40;;;;;;5006859;28;20481;-51
2022/05/01 12:17:16;;;;;;;6.37;5.87;;;24.10;62.30;;;;;;5007808;28;20705;-52
2022/05/01 12:19:51;;;;;;;5.00;4.53;;;24.20;61.50;;;;;;5006418;28;20446;-52
2022/05/01 12:22:20;;;;;;;5.70;4.77;;;24.00;61.10;;;;;;5007787;28;20516;-53
2022/05/01 12:24:48;;;;;;;4.83;4.40;;;23.40;60.90;;;;;;5006624;28;20515;-53
2022/05/01 12:27:20;;;;;;;5.40;4.10;;;23.30;61.60;;;;;;5008599;28;20752;-50
2022/05/01 12:29:51;;;;;;;8.70;5.30;;;23.20;63.00;;;;;;5006243;28;20671;-53
2022/05/01 12:32:20;;;;;;;5.83;5.30;;;23.70;62.00;;;;;;5012476;28;20434;-52
2022/05/01 12:34:48;;;;;;;4.80;4.30;;;24.10;61.00;;;;;;5006463;28;20451;-53
2022/05/01 12:37:29;;;;;;;7.00;4.40;;;24.60;60.10;;;;;;5007539;28;20439;-49
2022/05/01 12:39:58;;;;;;;4.93;4.10;;;24.50;59.70;;;;;;5008905;28;20432;-52
2022/05/01 12:45:16;;;;;;;7.27;5.30;;;23.80;60.70;;;;;;5009084;28;20408;-55
2022/05/01 12:47:48;;;;;;;4.87;4.47;;;23.80;60.20;;;;;;4995755;28;20538;-53
2022/05/01 12:50:27;;;;;;;4.70;4.23;;;23.10;62.10;;;;;;5007884;28;20461;-54
2022/05/01 12:53:02;;;;;;;5.37;4.97;;;23.10;62.20;;;;;;5005277;28;20435;-54
2022/05/01 12:55:40;;;;;;;5.53;4.57;;;23.20;62.20;;;;;;5007305;28;20445;-56
2022/05/01 12:58:11;;;;;;;5.33;4.77;;;23.00;61.20;;;;;;5010018;28;20446;-54
2022/05/01 13:00:39;;;;;;;4.90;4.40;;;22.90;61.40;;;;;;5005449;28;20469;-55
2022/05/01 13:03:28;;;;;;;4.93;4.30;;;22.70;62.20;;;;;;5006312;28;20414;-50
2022/05/01 13:06:18;;;;;;;4.80;4.37;;;23.00;62.70;;;;;;5005279;28;20482;-50
2022/05/01 13:09:06;;;;;;;5.73;5.20;;;22.60;62.70;;;;;;5004482;28;20485;-54
2022/05/01 13:11:35;;;;;;;5.50;4.40;;;22.40;63.40;;;;;;5005470;28;20439;-51
2022/05/01 13:14:05;;;;;;;5.90;4.33;;;22.40;63.30;;;;;;5006588;28;20435;-52
2022/05/01 13:16:32;;;;;;;4.20;3.90;;;22.20;63.70;;;;;;5005565;28;20456;-50
2022/05/01 13:19:01;;;;;;;7.20;5.03;;;22.30;64.60;;;;;;5005257;28;20645;-53
2022/05/01 13:21:30;;;;;;;6.13;4.60;;;21.80;64.20;;;;;;5004482;28;20456;-52
2022/05/01 13:24:09;;;;;;;6.17;4.47;;;21.80;64.40;;;;;;5004747;28;20416;-49
2022/05/01 13:26:37;;;;;;;5.93;4.57;;;21.60;65.00;;;;;;5005279;28;20412;-54
2022/05/01 13:29:10;;;;;;;5.87;5.13;;;21.50;66.70;;;;;;5006510;28;20459;-55
2022/05/01 13:31:46;;;;;;;5.57;4.80;;;21.50;67.70;;;;;;5005125;28;20453;-53
2022/05/01 13:34:15;;;;;;;4.40;4.00;;;21.60;65.90;;;;;;5007175;28;20481;-51
2022/05/01 13:36:42;;;;;;;5.80;4.70;;;21.40;65.70;;;;;;5005212;28;20428;-53
2022/05/01 13:39:10;;;;;;;8.83;5.40;;;21.10;66.20;;;;;;5006033;28;20497;-50
2022/05/01 13:46:53;;;;;;;6.47;5.20;;;20.70;68.70;;;;;;5008695;28;20779;-55